Time;durP1;ratioP1;P1;durP2;ratioP2;P2;SDS_P1;SDS_P2;PMS_P1;PMS_P2;Temp;Humidity;BMP_temperature;BMP_pressure;BME280_temperature;BME280_humidity;BME280_pressure;Samples;Min_cycle;Max_cycle;Signal;HPM_P1;HPM_P2
2021/12/07 00:00:45;;;;;;;1.40;0.70;;;19.70;49.80;;;;;;6135645;23;91361;-81
2021/12/07 00:03:21;;;;;;;3.45;0.82;;;19.70;49.80;;;;;;6110578;23;94853;-82
2021/12/07 00:05:48;;;;;;;2.83;0.70;;;19.70;49.80;;;;;;6111567;23;95469;-82
2021/12/07 00:08:14;;;;;;;4.38;0.52;;;19.70;49.80;;;;;;6110683;23;92936;-82
2021/12/07 00:10:41;;;;;;;2.83;0.68;;;19.70;49.70;;;;;;6136474;23;92410;-82
2021/12/07 00:13:09;;;;;;;1.02;0.60;;;19.70;49.70;;;;;;6137300;23;92863;-82
2021/12/07 00:15:36;;;;;;;1.35;0.50;;;19.70;49.70;;;;;;6109273;23;95048;-82
2021/12/07 00:18:03;;;;;;;2.38;0.90;;;19.70;49.70;;;;;;6109194;23;92137;-81
2021/12/07 00:20:29;;;;;;;2.63;1.15;;;19.60;49.70;;;;;;6134926;23;92056;-81
2021/12/07 00:22:58;;;;;;;3.05;0.73;;;19.70;49.80;;;;;;6134307;23;92873;-82
2021/12/07 00:25:24;;;;;;;1.40;0.93;;;19.60;49.70;;;;;;6112051;23;94530;-82
2021/12/07 00:27:50;;;;;;;2.78;1.08;;;19.60;49.70;;;;;;6137393;23;92883;-82
2021/12/07 00:30:17;;;;;;;2.30;0.90;;;19.60;49.70;;;;;;6134757;23;91996;-82
2021/12/07 00:35:33;;;;;;;3.97;0.77;;;19.60;49.70;;;;;;6084992;23;93525;-82
2021/12/07 00:38:00;;;;;;;2.97;0.77;;;19.60;49.70;;;;;;6132747;23;92087;-82
2021/12/07 00:40:26;;;;;;;3.08;0.60;;;19.60;49.70;;;;;;6133644;23;92188;-82
2021/12/07 00:42:52;;;;;;;2.55;0.90;;;19.60;49.70;;;;;;6107798;23;94483;-81
2021/12/07 00:45:19;;;;;;;4.97;1.02;;;19.60;49.70;;;;;;6107020;23;94207;-81
2021/12/07 00:47:45;;;;;;;2.40;0.52;;;19.60;49.70;;;;;;6132334;23;92601;-82
2021/12/07 00:50:11;;;;;;;3.90;0.60;;;19.60;49.70;;;;;;6134606;23;91901;-82
2021/12/07 00:52:38;;;;;;;2.70;0.75;;;19.60;49.70;;;;;;6108945;23;95399;-82
2021/12/07 00:55:12;;;;;;;1.45;0.80;;;19.60;49.70;;;;;;6109061;23;94646;-81
2021/12/07 00:57:38;;;;;;;5.40;0.80;;;19.60;49.70;;;;;;6108291;23;93902;-82
2021/12/07 01:00:15;;;;;;;2.35;0.70;;;19.60;49.80;;;;;;6108641;23;92825;-82
2021/12/07 01:02:42;;;;;;;1.42;0.80;;;19.50;49.80;;;;;;6134581;23;94373;-81
2021/12/07 01:05:27;;;;;;;2.33;0.95;;;19.50;49.80;;;;;;6134161;23;92889;-82
2021/12/07 01:08:53;;;;;;;1.77;0.82;;;19.50;49.80;;;;;;6108498;23;92850;-82
2021/12/07 01:27:07;;;;;;;2.28;0.95;;;19.40;49.80;;;;;;6133578;23;92401;-81
2021/12/07 01:29:34;;;;;;;2.05;0.80;;;19.40;49.80;;;;;;6107326;22;92240;-81
2021/12/07 01:37:29;;;;;;;2.97;0.95;;;19.40;49.90;;;;;;6129948;23;92556;-81
2021/12/07 01:50:34;;;;;;;2.67;0.70;;;19.30;50.10;;;;;;6130693;22;93007;-81
2021/12/07 02:01:05;;;;;;;1.00;0.60;;;19.20;50.20;;;;;;6131396;23;92140;-82
2021/12/07 02:03:30;;;;;;;4.50;0.80;;;19.20;50.30;;;;;;6132100;23;92509;-82
2021/12/07 02:05:57;;;;;;;1.98;0.73;;;19.20;50.30;;;;;;6128880;23;95123;-81
2021/12/07 02:08:23;;;;;;;4.13;0.82;;;19.20;50.30;;;;;;6130374;23;91646;-81
2021/12/07 02:10:52;;;;;;;1.35;0.68;;;19.20;50.40;;;;;;6127339;23;92809;-82
2021/12/07 02:15:56;;;;;;;1.52;0.57;;;19.20;50.40;;;;;;6126286;23;93107;-81
2021/12/07 02:18:22;;;;;;;2.42;0.90;;;19.20;50.40;;;;;;6101917;23;94997;-82
2021/12/07 02:20:49;;;;;;;1.67;0.65;;;19.20;50.50;;;;;;6102278;23;92767;-81
2021/12/07 02:23:15;;;;;;;2.15;0.80;;;19.20;50.50;;;;;;6126325;23;92614;-80
2021/12/07 02:25:41;;;;;;;1.60;0.40;;;19.10;50.50;;;;;;6101611;23;95499;-81
2021/12/07 02:28:12;;;;;;;1.77;1.17;;;19.20;50.50;;;;;;6128030;23;92555;-81
2021/12/07 02:30:38;;;;;;;3.33;1.00;;;19.20;50.50;;;;;;6129198;22;92488;-82
2021/12/07 02:33:05;;;;;;;4.60;1.00;;;19.10;50.60;;;;;;6103761;23;91475;-81
2021/12/07 02:35:30;;;;;;;4.18;0.90;;;19.10;50.60;;;;;;6102777;23;94767;-79
2021/12/07 02:37:58;;;;;;;1.98;0.80;;;19.10;50.60;;;;;;6100498;23;95260;-80
2021/12/07 02:40:24;;;;;;;3.00;0.88;;;19.10;50.60;;;;;;6124198;23;93323;-79
2021/12/07 02:42:50;;;;;;;1.85;0.68;;;19.10;50.60;;;;;;6099483;23;92650;-80
2021/12/07 02:45:17;;;;;;;2.67;0.75;;;19.10;50.60;;;;;;6124419;23;93361;-79
2021/12/07 02:47:44;;;;;;;1.33;0.80;;;19.10;50.60;;;;;;6099987;23;92680;-79
2021/12/07 02:50:12;;;;;;;1.80;0.85;;;19.10;50.60;;;;;;6127537;23;92630;-80
2021/12/07 02:52:38;;;;;;;3.20;0.68;;;19.10;50.60;;;;;;6102204;23;92966;-80
2021/12/07 02:55:05;;;;;;;2.88;0.63;;;19.10;50.70;;;;;;6100057;23;96558;-79
2021/12/07 02:57:33;;;;;;;1.48;0.73;;;19.10;50.70;;;;;;6100840;23;94536;-80
2021/12/07 03:00:09;;;;;;;3.30;1.02;;;19.10;50.70;;;;;;6128257;23;92411;-79
2021/12/07 03:02:42;;;;;;;2.75;0.80;;;19.10;50.70;;;;;;6102135;23;92866;-79
2021/12/07 03:05:32;;;;;;;2.17;0.70;;;19.10;50.70;;;;;;6127557;23;94750;-79
2021/12/07 03:26:52;;;;;;;2.25;0.77;;;19.00;50.80;;;;;;6124702;23;92314;-79
2021/12/07 03:29:18;;;;;;;1.60;0.60;;;19.00;50.80;;;;;;6125006;22;92008;-80
2021/12/07 03:31:44;;;;;;;1.42;0.70;;;19.00;51.30;;;;;;6100355;23;93422;-79
2021/12/07 03:34:09;;;;;;;2.47;0.80;;;19.00;50.80;;;;;;6101888;23;92789;-79
2021/12/07 03:36:36;;;;;;;2.10;0.60;;;19.00;50.80;;;;;;6130490;23;92729;-79
2021/12/07 03:39:04;;;;;;;2.33;0.80;;;19.00;50.80;;;;;;6101930;23;95283;-79
2021/12/07 03:41:30;;;;;;;3.58;0.90;;;19.00;50.80;;;;;;6101787;23;92121;-80
2021/12/07 03:43:55;;;;;;;4.30;0.88;;;19.00;50.90;;;;;;6100520;23;92724;-79
2021/12/07 03:46:21;;;;;;;2.45;0.90;;;19.00;50.90;;;;;;6098721;23;95705;-79
2021/12/07 03:48:47;;;;;;;1.77;0.70;;;18.90;50.80;;;;;;6126389;23;92790;-79
2021/12/07 03:51:13;;;;;;;1.38;0.65;;;18.90;50.90;;;;;;6100529;23;92359;-79
2021/12/07 03:53:39;;;;;;;2.78;0.65;;;18.90;50.90;;;;;;6098869;23;92791;-79
2021/12/07 03:56:07;;;;;;;1.50;0.80;;;18.90;50.90;;;;;;6123544;23;93692;-79
2021/12/07 03:58:36;;;;;;;1.30;0.60;;;18.90;50.90;;;;;;6099126;23;96134;-79
2021/12/07 04:01:06;;;;;;;2.78;0.73;;;18.90;51.00;;;;;;6099508;23;92253;-79
2021/12/07 04:03:34;;;;;;;1.10;0.60;;;18.80;51.00;;;;;;6100870;23;92862;-80
2021/12/07 04:06:05;;;;;;;3.58;1.00;;;18.90;51.10;;;;;;6125602;23;92748;-79
2021/12/07 04:08:32;;;;;;;1.77;0.80;;;18.80;51.10;;;;;;6100344;23;95316;-78
2021/12/07 04:10:58;;;;;;;2.63;0.70;;;18.80;51.10;;;;;;6125255;22;92775;-79
2021/12/07 04:13:24;;;;;;;2.58;0.70;;;18.80;51.70;;;;;;6098953;23;91805;-79
2021/12/07 04:15:50;;;;;;;1.30;0.70;;;18.80;51.20;;;;;;6099172;23;95295;-79
2021/12/07 04:18:16;;;;;;;2.50;0.90;;;18.80;51.20;;;;;;6124481;23;92545;-78
2021/12/07 04:20:43;;;;;;;2.65;0.60;;;18.80;51.70;;;;;;6125746;23;92998;-79
2021/12/07 04:23:09;;;;;;;2.33;0.50;;;18.80;51.20;;;;;;6124796;23;92068;-80
2021/12/07 04:25:35;;;;;;;2.50;0.80;;;18.70;51.30;;;;;;6099630;23;95669;-79
2021/12/07 04:28:02;;;;;;;1.63;0.68;;;18.70;51.30;;;;;;6124110;23;92585;-79
2021/12/07 04:30:34;;;;;;;2.17;0.60;;;18.70;51.30;;;;;;6124909;23;92438;-78
2021/12/07 04:33:05;;;;;;;2.17;0.75;;;18.70;51.30;;;;;;6098403;23;92066;-79
2021/12/07 04:35:31;;;;;;;1.67;0.75;;;18.70;51.40;;;;;;6100340;23;95835;-79
2021/12/07 04:37:57;;;;;;;2.03;0.77;;;18.70;51.40;;;;;;6124755;23;91663;-79
2021/12/07 04:40:25;;;;;;;1.30;0.60;;;18.70;51.40;;;;;;6123509;23;92003;-79
2021/12/07 04:42:52;;;;;;;2.67;0.73;;;18.60;51.40;;;;;;6097317;23;92445;-80
2021/12/07 04:59:04;;;;;;;2.47;1.00;;;18.60;51.70;;;;;;6058216;23;92811;-79
2021/12/07 05:01:31;;;;;;;1.85;0.90;;;18.60;51.80;;;;;;6073275;23;92927;-79
2021/12/07 05:04:00;;;;;;;1.92;0.75;;;18.60;51.80;;;;;;6123187;23;91581;-79
2021/12/07 05:06:30;;;;;;;3.00;0.70;;;18.60;51.80;;;;;;6098291;23;93397;-79
2021/12/07 05:09:01;;;;;;;1.35;0.50;;;18.60;51.90;;;;;;6098278;23;93938;-79
2021/12/07 05:11:44;;;;;;;0.60;0.45;;;18.50;51.90;;;;;;6123798;23;93504;-79
2021/12/07 05:14:27;;;;;;;2.80;1.00;;;18.50;51.90;;;;;;6098200;23;92483;-79
2021/12/07 05:38:27;;;;;;;2.28;0.60;;;18.50;52.20;;;;;;6124061;23;93200;-80
2021/12/07 05:40:53;;;;;;;3.70;1.00;;;18.40;52.20;;;;;;6098447;23;96374;-79
2021/12/07 05:43:18;;;;;;;2.35;0.75;;;18.40;52.30;;;;;;6123726;23;92088;-78
2021/12/07 05:45:44;;;;;;;1.83;0.70;;;18.40;52.30;;;;;;6123225;23;92140;-79
2021/12/07 05:48:10;;;;;;;1.77;0.50;;;18.40;52.30;;;;;;6098713;23;93698;-79
2021/12/07 05:50:38;;;;;;;1.95;0.60;;;18.40;52.30;;;;;;6125825;23;92950;-79
2021/12/07 05:53:05;;;;;;;2.13;0.75;;;18.40;52.30;;;;;;6099580;23;93010;-79
2021/12/07 05:55:31;;;;;;;0.65;0.32;;;18.40;52.30;;;;;;6096446;23;91767;-78
2021/12/07 05:57:57;;;;;;;1.63;0.65;;;18.40;52.40;;;;;;6118917;23;92812;-78
2021/12/07 06:00:27;;;;;;;1.17;0.60;;;18.40;52.50;;;;;;6117378;23;92800;-78
2021/12/07 06:02:59;;;;;;;1.48;0.63;;;18.40;52.50;;;;;;6092308;23;93926;-78
2021/12/07 06:05:26;;;;;;;1.35;0.55;;;18.60;52.60;;;;;;6124331;23;92395;-79
2021/12/07 06:07:52;;;;;;;3.78;0.80;;;18.60;52.40;;;;;;6124373;23;92734;-79
2021/12/07 06:10:19;;;;;;;2.20;0.60;;;18.70;52.50;;;;;;6124146;23;92810;-79
2021/12/07 06:12:45;;;;;;;1.65;0.60;;;18.70;52.60;;;;;;6098183;23;92379;-79
2021/12/07 06:15:12;;;;;;;1.85;0.60;;;18.80;52.60;;;;;;6123971;23;92786;-79
2021/12/07 06:17:38;;;;;;;3.13;0.60;;;18.90;52.50;;;;;;6097348;23;95106;-78
2021/12/07 06:20:08;;;;;;;0.90;0.38;;;19.00;52.40;;;;;;6122673;23;92707;-79
2021/12/07 06:22:36;;;;;;;1.42;0.60;;;19.10;52.40;;;;;;6112143;23;92370;-81
2021/12/07 06:25:03;;;;;;;2.55;0.82;;;19.20;52.30;;;;;;6128651;22;92619;-79
2021/12/07 06:27:29;;;;;;;0.57;0.40;;;19.20;52.20;;;;;;6092699;23;96779;-78
2021/12/07 06:29:55;;;;;;;0.90;0.40;;;19.30;52.10;;;;;;6094022;23;96343;-78
2021/12/07 06:32:20;;;;;;;1.13;0.50;;;19.40;52.00;;;;;;6093387;23;92513;-79
2021/12/07 06:34:46;;;;;;;1.52;0.63;;;19.50;51.90;;;;;;6119165;23;92784;-78
2021/12/07 06:37:12;;;;;;;1.35;0.43;;;19.50;51.80;;;;;;6117688;23;94186;-79
2021/12/07 06:39:37;;;;;;;1.50;0.63;;;19.60;51.70;;;;;;6090817;22;92561;-78
2021/12/07 06:42:03;;;;;;;2.13;0.50;;;19.70;51.70;;;;;;6092980;23;92700;-79
2021/12/07 06:44:29;;;;;;;1.58;0.63;;;19.80;51.60;;;;;;6093360;23;91507;-78
2021/12/07 06:46:55;;;;;;;3.10;0.70;;;19.80;51.40;;;;;;6117876;23;92748;-78
2021/12/07 06:49:21;;;;;;;1.63;0.50;;;19.90;51.40;;;;;;6117385;23;92783;-78
2021/12/07 06:51:47;;;;;;;1.05;0.55;;;20.00;51.30;;;;;;6093197;23;93413;-78
2021/12/07 06:54:13;;;;;;;2.72;0.73;;;20.00;51.20;;;;;;6120995;23;92747;-79
2021/12/07 06:56:39;;;;;;;0.93;0.40;;;20.10;51.10;;;;;;6094664;23;95744;-78
2021/12/07 06:59:05;;;;;;;1.50;0.40;;;20.10;51.00;;;;;;6094257;23;96895;-80
2021/12/07 07:01:32;;;;;;;2.85;0.60;;;20.10;51.10;;;;;;6120959;23;92624;-79
2021/12/07 07:03:58;;;;;;;1.77;0.57;;;20.20;51.30;;;;;;6095968;23;92174;-79
2021/12/07 07:06:24;;;;;;;2.25;0.50;;;20.20;51.40;;;;;;6095875;23;94967;-79
2021/12/07 07:08:50;;;;;;;3.00;0.60;;;20.30;51.60;;;;;;6096401;23;95382;-79
2021/12/07 07:11:17;;;;;;;1.33;0.60;;;20.20;51.60;;;;;;6121001;23;93267;-79
2021/12/07 07:13:44;;;;;;;3.92;0.57;;;20.30;51.70;;;;;;6120811;23;92813;-79
2021/12/07 07:16:10;;;;;;;3.45;0.73;;;20.30;51.70;;;;;;6118819;23;93972;-79
2021/12/07 07:18:36;;;;;;;2.17;0.60;;;20.30;51.70;;;;;;6118573;23;93079;-79
2021/12/07 07:21:03;;;;;;;2.15;0.40;;;20.30;51.80;;;;;;6092366;23;92957;-79
2021/12/07 07:23:29;;;;;;;1.13;0.50;;;20.30;51.80;;;;;;6117867;23;92057;-79
2021/12/07 07:25:55;;;;;;;1.13;0.40;;;20.30;51.80;;;;;;6094612;23;95591;-79
2021/12/07 07:28:29;;;;;;;1.42;0.45;;;20.30;51.90;;;;;;6119813;23;92952;-78
2021/12/07 07:30:56;;;;;;;;;;;20.30;52.00;;;;;;6123378;23;92112;-78
2021/12/07 07:33:21;;;;;;;2.78;0.50;;;20.40;52.10;;;;;;6093772;23;91885;-79
2021/12/07 07:35:47;;;;;;;1.52;0.80;;;20.40;52.00;;;;;;6092609;23;93761;-79
2021/12/07 07:38:14;;;;;;;17.38;2.15;;;20.40;51.90;;;;;;6117453;23;92685;-78
2021/12/07 07:40:43;;;;;;;25.80;3.75;;;20.40;51.80;;;;;;6118832;23;93231;-78
2021/12/07 07:43:08;;;;;;;19.80;3.95;;;20.50;51.70;;;;;;6119100;23;93027;-79
2021/12/07 07:45:35;;;;;;;21.60;3.80;;;20.40;51.50;;;;;;6092800;23;94758;-78
2021/12/07 07:48:00;;;;;;;25.75;4.25;;;20.40;51.30;;;;;;6093555;23;95206;-78
2021/12/07 07:50:26;;;;;;;21.15;3.50;;;20.40;51.20;;;;;;6098060;23;93268;-79
2021/12/07 07:52:52;;;;;;;28.05;3.78;;;20.40;51.30;;;;;;6094544;23;93012;-79
2021/12/07 07:55:18;;;;;;;19.80;3.80;;;20.40;51.20;;;;;;6121363;23;93119;-79
2021/12/07 07:57:44;;;;;;;11.32;3.38;;;20.40;51.10;;;;;;6121578;23;92573;-77
2021/12/07 08:00:13;;;;;;;18.33;2.90;;;20.40;51.10;;;;;;6093323;23;93054;-79
2021/12/07 08:02:39;;;;;;;17.20;3.30;;;20.40;51.20;;;;;;6119967;23;92297;-78
2021/12/07 08:05:05;;;;;;;17.95;3.17;;;20.30;51.20;;;;;;6095827;23;96277;-81
2021/12/07 08:07:31;;;;;;;25.90;3.85;;;20.30;51.30;;;;;;6131593;23;92524;-80
2021/12/07 08:09:56;;;;;;;20.25;3.80;;;20.30;51.30;;;;;;6107251;23;92527;-82
2021/12/07 08:12:23;;;;;;;19.30;4.15;;;20.30;51.70;;;;;;6107039;23;92473;-81
2021/12/07 08:14:49;;;;;;;17.33;4.20;;;20.20;51.70;;;;;;6115770;23;95472;-82
2021/12/07 08:17:15;;;;;;;20.80;4.43;;;20.20;52.30;;;;;;6124232;23;93370;-80
2021/12/07 08:19:42;;;;;;;20.90;4.35;;;20.20;52.60;;;;;;6096795;23;92444;-81
2021/12/07 08:22:08;;;;;;;24.88;4.63;;;20.10;52.60;;;;;;6127842;23;91584;-81
2021/12/07 08:24:33;;;;;;;19.25;4.07;;;20.10;52.70;;;;;;6106011;23;94777;-82
2021/12/07 08:26:59;;;;;;;18.65;4.03;;;20.10;52.70;;;;;;6136567;23;92705;-81
2021/12/07 08:29:25;;;;;;;21.60;3.67;;;20.20;52.80;;;;;;6138076;22;93162;-82
2021/12/07 08:31:54;;;;;;;14.70;3.72;;;20.20;52.90;;;;;;6113267;23;92710;-82
2021/12/07 08:34:20;;;;;;;17.48;3.80;;;20.20;52.90;;;;;;6113258;23;95077;-82
2021/12/07 08:36:45;;;;;;;18.80;3.90;;;20.20;52.90;;;;;;6139289;23;92562;-82
2021/12/07 08:39:12;;;;;;;15.43;4.72;;;20.20;52.80;;;;;;6082422;23;91912;-81
2021/12/07 08:41:38;;;;;;;20.60;4.00;;;20.20;52.80;;;;;;6104904;23;92197;-81
2021/12/07 08:44:04;;;;;;;15.85;4.45;;;20.30;52.90;;;;;;6129946;23;92825;-80
2021/12/07 08:46:30;;;;;;;15.35;3.55;;;20.20;52.80;;;;;;6102428;23;93562;-81
2021/12/07 08:48:57;;;;;;;10.40;3.35;;;20.20;52.80;;;;;;6136071;23;92624;-81
2021/12/07 08:51:23;;;;;;;16.33;4.18;;;20.20;52.90;;;;;;6111209;23;92251;-81
2021/12/07 08:53:55;;;;;;;11.88;3.05;;;20.20;52.80;;;;;;6108241;23;95193;-82
2021/12/07 09:01:52;;;;;;;13.40;3.65;;;20.10;52.80;;;;;;6133930;23;92391;-81
2021/12/07 09:04:20;;;;;;;11.25;3.58;;;20.10;52.90;;;;;;6110256;23;95086;-81
2021/12/07 09:06:49;;;;;;;11.98;3.30;;;20.10;53.10;;;;;;6138563;23;92817;-81
2021/12/07 09:09:15;;;;;;;11.32;3.22;;;20.10;52.90;;;;;;6135813;23;92588;-82
2021/12/07 09:11:42;;;;;;;15.93;3.95;;;20.10;52.90;;;;;;6107902;23;91964;-81
2021/12/07 09:14:14;;;;;;;19.52;4.32;;;20.00;52.80;;;;;;6105429;23;95897;-81
2021/12/07 09:16:41;;;;;;;14.33;3.90;;;20.00;52.80;;;;;;6131553;23;93365;-81
2021/12/07 09:19:08;;;;;;;12.55;2.80;;;20.00;52.80;;;;;;6132372;23;93123;-83
2021/12/07 09:21:34;;;;;;;15.98;3.58;;;20.00;52.80;;;;;;6109412;23;92878;-80
2021/12/07 09:24:09;;;;;;;11.95;2.85;;;20.00;52.70;;;;;;6098769;23;94807;-81
2021/12/07 09:26:36;;;;;;;13.15;3.65;;;20.00;52.70;;;;;;6099816;23;95260;-81
2021/12/07 09:29:04;;;;;;;18.50;3.00;;;19.90;52.80;;;;;;6102371;23;92709;-81
2021/12/07 09:31:29;;;;;;;12.65;2.83;;;19.90;52.70;;;;;;6133148;23;92696;-81
2021/12/07 09:33:55;;;;;;;14.15;3.55;;;19.90;52.70;;;;;;6134280;23;92016;-82
2021/12/07 09:36:22;;;;;;;14.93;3.90;;;19.90;52.70;;;;;;6134463;23;92775;-82
2021/12/07 09:38:49;;;;;;;12.02;3.05;;;19.90;52.50;;;;;;6132586;23;92904;-81
2021/12/07 09:41:15;;;;;;;9.07;2.80;;;19.90;52.20;;;;;;6130521;23;92325;-81
2021/12/07 09:43:43;;;;;;;9.52;3.28;;;19.90;52.10;;;;;;6127164;23;94712;-81
2021/12/07 09:46:11;;;;;;;10.73;2.75;;;19.90;51.90;;;;;;6127360;23;94114;-81
2021/12/07 09:48:40;;;;;;;8.95;2.30;;;19.90;51.80;;;;;;6128830;23;92306;-80
2021/12/07 09:51:08;;;;;;;12.55;2.70;;;19.90;51.80;;;;;;6126467;22;92516;-80
2021/12/07 09:53:35;;;;;;;11.07;3.15;;;19.80;51.70;;;;;;6128198;23;92696;-81
2021/12/07 09:56:03;;;;;;;12.10;3.10;;;19.80;51.60;;;;;;6102759;23;94630;-80
2021/12/07 09:58:29;;;;;;;10.82;2.45;;;19.80;51.40;;;;;;6129956;23;92486;-81
2021/12/07 10:00:55;;;;;;;9.82;3.08;;;19.80;51.40;;;;;;6130453;23;92192;-81
2021/12/07 10:03:23;;;;;;;8.18;2.42;;;19.80;51.30;;;;;;6132950;23;92897;-82
2021/12/07 10:05:49;;;;;;;9.27;2.28;;;19.80;51.20;;;;;;6140827;23;92096;-82
2021/12/07 10:08:14;;;;;;;11.07;3.25;;;19.80;51.10;;;;;;6140940;23;93080;-82
2021/12/07 10:10:51;;;;;;;9.85;2.67;;;19.80;51.10;;;;;;6140775;23;91938;-82
2021/12/07 10:13:17;;;;;;;6.40;2.28;;;19.80;51.10;;;;;;6113298;23;96022;-81
2021/12/07 10:15:45;;;;;;;10.98;2.50;;;19.80;51.00;;;;;;6135393;23;92035;-80
2021/12/07 10:18:19;;;;;;;8.10;2.10;;;19.80;50.80;;;;;;6104228;23;92514;-81
2021/12/07 10:20:53;;;;;;;10.90;2.78;;;19.90;50.80;;;;;;6101128;23;92476;-80
2021/12/07 10:23:21;;;;;;;6.25;2.13;;;19.90;50.70;;;;;;6104398;23;95013;-81
2021/12/07 10:26:08;;;;;;;8.65;2.22;;;19.90;50.70;;;;;;6099692;23;93085;-80
2021/12/07 10:28:45;;;;;;;6.13;2.05;;;19.90;50.70;;;;;;6098412;23;92347;-80
2021/12/07 10:31:10;;;;;;;8.23;2.30;;;19.90;50.70;;;;;;6103121;23;92214;-79
2021/12/07 10:36:18;;;;;;;7.50;3.33;;;20.00;50.70;;;;;;6145893;22;92997;-65
2021/12/07 10:38:50;;;;;;;9.38;2.55;;;20.10;50.70;;;;;;6146579;22;92131;-63
2021/12/07 10:41:21;;;;;;;9.38;2.40;;;20.10;50.00;;;;;;6136290;22;93385;-66
2021/12/07 10:43:58;;;;;;;6.72;1.88;;;20.10;49.50;;;;;;6118656;22;96652;-64
2021/12/07 10:46:31;;;;;;;9.52;1.70;;;20.20;49.20;;;;;;6118061;22;96062;-63
2021/12/07 10:49:10;;;;;;;5.90;1.65;;;20.20;49.20;;;;;;6143762;22;92964;-64
2021/12/07 10:51:37;;;;;;;8.35;2.20;;;20.30;49.20;;;;;;6145269;22;91645;-64
2021/12/07 10:54:03;;;;;;;10.88;1.60;;;20.30;49.10;;;;;;6120195;22;96360;-64
2021/12/07 10:56:37;;;;;;;7.93;1.92;;;20.30;49.10;;;;;;6146339;22;92299;-63
2021/12/07 10:59:06;;;;;;;9.18;1.98;;;20.40;49.00;;;;;;6119302;22;93969;-64
2021/12/07 11:01:41;;;;;;;7.30;2.15;;;20.40;48.90;;;;;;6145943;22;92060;-63
2021/12/07 11:04:25;;;;;;;6.82;2.15;;;20.50;48.80;;;;;;6146029;22;92630;-63
2021/12/07 11:07:20;;;;;;;6.38;1.83;;;20.40;48.60;;;;;;6119596;22;95943;-63
2021/12/07 11:10:00;;;;;;;8.70;1.80;;;20.50;48.60;;;;;;6145655;22;92490;-63
2021/12/07 11:12:31;;;;;;;6.03;1.50;;;20.50;48.60;;;;;;6120223;22;92620;-64
2021/12/07 11:15:00;;;;;;;5.68;1.60;;;20.40;48.50;;;;;;6145787;22;92555;-64
2021/12/07 11:17:33;;;;;;;7.45;1.85;;;20.50;48.50;;;;;;6145951;22;92832;-63
2021/12/07 11:20:03;;;;;;;6.05;1.70;;;20.50;48.30;;;;;;6142645;22;93030;-64
2021/12/07 11:22:32;;;;;;;7.07;1.98;;;20.50;48.20;;;;;;6110466;22;92248;-63
2021/12/07 11:25:01;;;;;;;6.50;1.52;;;20.50;48.20;;;;;;6198565;22;93935;-64
2021/12/07 11:30:13;;;;;;;6.57;1.65;;;20.40;48.10;;;;;;6176527;22;92435;-63
2021/12/07 11:32:55;;;;;;;3.65;1.20;;;20.40;48.00;;;;;;6176777;22;92572;-64
2021/12/07 11:35:39;;;;;;;12.60;1.98;;;20.50;47.90;;;;;;6175811;22;93044;-61
2021/12/07 11:38:06;;;;;;;5.65;1.60;;;20.40;47.90;;;;;;6175165;22;93473;-62
2021/12/07 11:40:35;;;;;;;4.82;1.45;;;20.40;48.00;;;;;;6174936;22;92867;-64
2021/12/07 11:43:01;;;;;;;7.60;2.15;;;20.40;48.10;;;;;;6176640;22;91358;-63
2021/12/07 11:45:30;;;;;;;5.95;1.70;;;20.30;48.10;;;;;;6175524;22;93182;-64
2021/12/07 11:47:59;;;;;;;6.85;1.73;;;20.30;48.20;;;;;;6175723;22;92408;-64
2021/12/07 11:50:32;;;;;;;5.55;1.35;;;20.40;48.30;;;;;;6174942;22;93221;-65
2021/12/07 11:53:12;;;;;;;6.55;1.30;;;20.40;48.20;;;;;;6177132;22;92736;-63
2021/12/07 11:55:41;;;;;;;4.97;1.15;;;20.30;48.10;;;;;;6176400;22;93181;-63
2021/12/07 11:58:09;;;;;;;7.05;1.40;;;20.40;48.20;;;;;;6175275;22;93177;-62
2021/12/07 12:00:38;;;;;;;6.32;1.30;;;20.40;48.10;;;;;;6177051;22;92540;-63
2021/12/07 12:03:07;;;;;;;5.78;1.30;;;20.40;48.00;;;;;;6176330;22;91937;-64
2021/12/07 12:05:34;;;;;;;4.63;1.30;;;20.40;47.80;;;;;;6175294;22;92917;-62
2021/12/07 12:08:01;;;;;;;9.80;1.60;;;20.40;47.70;;;;;;6176582;22;92336;-63
2021/12/07 12:10:29;;;;;;;6.50;1.13;;;20.40;47.40;;;;;;6176915;22;92960;-64
2021/12/07 12:13:00;;;;;;;7.80;2.17;;;20.40;47.30;;;;;;6176804;22;92496;-65
2021/12/07 12:15:46;;;;;;;6.20;1.50;;;20.40;47.20;;;;;;6175555;22;93892;-63
2021/12/07 12:18:33;;;;;;;7.03;1.83;;;20.40;47.20;;;;;;6175162;22;93258;-63
2021/12/07 12:21:33;;;;;;;4.60;1.50;;;20.30;47.10;;;;;;6175699;22;92926;-63
2021/12/07 12:24:24;;;;;;;3.88;0.95;;;20.30;47.20;;;;;;6136308;22;92842;-63
2021/12/07 12:27:15;;;;;;;5.18;1.40;;;20.30;47.20;;;;;;6174460;22;95717;-61
2021/12/07 12:29:42;;;;;;;4.03;1.20;;;20.30;47.20;;;;;;6174271;22;94064;-63
2021/12/07 12:32:08;;;;;;;5.45;1.00;;;20.30;47.30;;;;;;6176139;22;92672;-62
2021/12/07 12:34:54;;;;;;;4.28;1.13;;;20.30;47.20;;;;;;6175890;22;91408;-61
2021/12/07 12:37:22;;;;;;;5.35;1.10;;;20.30;47.10;;;;;;6176174;22;93835;-60
2021/12/07 12:39:55;;;;;;;7.07;1.20;;;20.30;47.00;;;;;;6175809;22;92992;-61
2021/12/07 12:42:24;;;;;;;7.72;1.70;;;20.30;46.90;;;;;;6174842;22;93423;-64
2021/12/07 12:45:02;;;;;;;4.78;1.30;;;20.30;46.80;;;;;;6172377;22;92702;-62
2021/12/07 12:47:30;;;;;;;4.03;1.15;;;20.30;46.70;;;;;;6175710;22;92615;-62
2021/12/07 12:49:55;;;;;;;5.70;0.98;;;20.30;46.70;;;;;;6174471;22;95884;-62
2021/12/07 12:52:38;;;;;;;4.30;1.20;;;20.30;46.70;;;;;;6176557;22;92248;-65
2021/12/07 12:55:05;;;;;;;7.20;0.95;;;20.30;46.60;;;;;;6176687;22;92370;-63
2021/12/07 12:57:31;;;;;;;4.05;1.33;;;20.30;46.60;;;;;;6175102;22;93765;-61
2021/12/07 12:59:56;;;;;;;4.72;1.30;;;20.20;46.50;;;;;;6176025;22;93172;-64
2021/12/07 13:02:22;;;;;;;4.75;1.15;;;20.20;46.60;;;;;;6176613;22;93449;-63
2021/12/07 13:05:05;;;;;;;4.40;1.10;;;20.20;46.70;;;;;;6176446;22;92795;-61
2021/12/07 13:07:31;;;;;;;6.78;1.52;;;20.20;46.60;;;;;;6174933;22;94668;-63
2021/12/07 13:10:01;;;;;;;4.68;1.08;;;20.30;46.90;;;;;;6174852;22;93299;-65
2021/12/07 13:12:38;;;;;;;3.60;0.95;;;20.20;47.10;;;;;;6176045;22;92552;-63
2021/12/07 13:15:07;;;;;;;4.60;1.15;;;20.20;47.10;;;;;;6175798;22;92954;-63
2021/12/07 13:17:46;;;;;;;5.90;1.45;;;20.30;47.30;;;;;;6176279;22;92663;-63
2021/12/07 13:20:15;;;;;;;4.05;1.10;;;20.30;47.40;;;;;;6176468;22;92694;-62
2021/12/07 13:22:44;;;;;;;6.43;1.38;;;20.30;47.40;;;;;;6176586;22;92903;-64
2021/12/07 13:25:23;;;;;;;7.43;1.55;;;20.30;48.00;;;;;;6177303;22;91958;-64
2021/12/07 13:28:11;;;;;;;5.80;1.65;;;20.30;47.50;;;;;;6176168;22;93381;-65
2021/12/07 13:30:53;;;;;;;8.52;1.70;;;20.30;47.50;;;;;;6176268;22;92309;-64
2021/12/07 13:33:38;;;;;;;5.82;1.33;;;20.30;47.60;;;;;;6175664;22;94246;-65
2021/12/07 13:36:37;;;;;;;4.55;1.30;;;20.30;47.90;;;;;;6175061;22;93189;-64
2021/12/07 13:39:12;;;;;;;4.82;1.40;;;20.30;47.80;;;;;;6175716;22;93048;-63
2021/12/07 13:41:48;;;;;;;5.40;1.80;;;20.30;47.80;;;;;;6174817;22;92870;-63
2021/12/07 13:44:15;;;;;;;6.93;1.30;;;20.30;47.80;;;;;;6176119;22;92928;-64
2021/12/07 13:46:41;;;;;;;5.15;1.13;;;20.40;47.80;;;;;;6175219;22;92621;-65
2021/12/07 13:49:12;;;;;;;5.38;1.55;;;20.40;47.80;;;;;;6173926;22;92720;-62
2021/12/07 13:51:39;;;;;;;6.70;1.67;;;20.30;47.70;;;;;;6175507;22;92763;-64
2021/12/07 13:54:07;;;;;;;7.45;1.60;;;20.40;47.90;;;;;;6175670;22;92626;-65
2021/12/07 13:56:37;;;;;;;7.35;1.40;;;20.40;47.90;;;;;;6175590;22;92289;-63
2021/12/07 13:59:12;;;;;;;5.05;1.35;;;20.40;48.10;;;;;;6174436;22;93849;-64
2021/12/07 14:01:41;;;;;;;3.58;1.27;;;20.40;48.10;;;;;;6175430;22;93799;-63
2021/12/07 14:04:07;;;;;;;7.18;1.70;;;20.40;48.30;;;;;;6174841;22;92646;-64
2021/12/07 14:06:34;;;;;;;4.78;1.15;;;20.40;48.30;;;;;;6176298;22;92002;-64
2021/12/07 14:09:08;;;;;;;4.28;1.38;;;20.40;48.40;;;;;;6175519;22;94198;-65
2021/12/07 14:11:35;;;;;;;5.10;1.10;;;20.40;48.30;;;;;;6175188;22;92759;-64
2021/12/07 14:14:06;;;;;;;6.82;1.33;;;20.40;48.20;;;;;;6175488;22;92945;-62
2021/12/07 14:16:31;;;;;;;4.20;1.23;;;20.40;48.10;;;;;;6175142;22;91964;-65
2021/12/07 14:18:57;;;;;;;8.32;1.90;;;20.40;48.10;;;;;;6173766;22;93097;-63
2021/12/07 14:21:23;;;;;;;4.38;1.15;;;20.40;48.00;;;;;;6173912;22;93658;-64
2021/12/07 14:24:02;;;;;;;4.93;1.30;;;20.40;48.00;;;;;;6174840;22;93305;-64
2021/12/07 14:26:28;;;;;;;7.40;1.70;;;20.40;48.20;;;;;;6176430;22;92602;-64
2021/12/07 14:29:04;;;;;;;6.30;1.73;;;20.40;48.20;;;;;;6176314;22;93182;-61
2021/12/07 14:31:45;;;;;;;7.30;1.27;;;20.40;48.10;;;;;;6175752;22;92783;-64
2021/12/07 14:34:12;;;;;;;6.50;1.05;;;20.40;48.10;;;;;;6175134;22;92662;-64
2021/12/07 14:36:45;;;;;;;5.60;1.30;;;20.50;48.20;;;;;;6176466;22;92450;-65
2021/12/07 14:39:19;;;;;;;7.22;0.95;;;20.40;48.20;;;;;;6175807;22;92473;-62
2021/12/07 14:41:51;;;;;;;6.68;1.52;;;20.40;48.20;;;;;;6176367;22;92837;-64
2021/12/07 14:44:24;;;;;;;5.63;1.75;;;20.50;48.30;;;;;;6176724;22;92600;-64
2021/12/07 14:46:51;;;;;;;7.27;1.67;;;20.40;48.30;;;;;;6175990;22;92743;-64